| time (UTC) | temp F | wind direction | speed knots | gust knots | rain 1hr in | rain 24hr in | rain mn in | humidity % | barometer mb |
| 20260507093019 | 43 | 196 | 1.7 | 3.5 | 0.00 | 0.00 | 0.00 | 74 | 1012.0 |
| 20260507091526 | 42 | 198 | 2.6 | 5.2 | 0.00 | 0.00 | 0.00 | 72 | 1012.1 |
| 20260507090032 | 42 | 217 | 1.7 | 4.3 | 0.00 | 0.00 | 0.00 | 71 | 1012.2 |
| 20260507084528 | 42 | 162 | 0.9 | 2.6 | 0.00 | 0.00 | 0.00 | 69 | 1012.4 |
| 20260507083026 | 42 | 217 | 0.9 | 3.5 | 0.00 | 0.00 | 0.00 | 68 | 1012.7 |
| 20260507081521 | 42 | 165 | 0.9 | 3.5 | 0.00 | 0.00 | 0.00 | 68 | 1012.8 |
| 20260507080018 | 41 | 219 | 0.9 | 3.5 | 0.00 | 0.00 | 0.00 | 70 | 1013.0 |
| 20260507074524 | 40 | 182 | 0.0 | 0.9 | 0.00 | 0.00 | 0.00 | 69 | 1013.3 |
| 20260507073027 | 42 | 216 | 0.0 | 1.7 | 0.00 | 0.00 | 0.00 | 64 | 1013.5 |
| 20260507071527 | 42 | 232 | 0.0 | 1.7 | 0.00 | 0.00 | 0.00 | 62 | 1013.7 |
| 20260507070019 | 41 | 231 | 0.9 | 1.7 | 0.00 | 0.00 | 0.00 | 63 | 1013.7 |
| 20260507064519 | 43 | 211 | 0.0 | 0.9 | 0.00 | 0.00 | 0.00 | 59 | 1013.9 |
| 20260507063024 | 43 | 219 | 0.9 | 2.6 | 0.00 | 0.00 | 0.00 | 57 | 1014.0 |
| 20260507061526 | 43 | 211 | 0.9 | 3.5 | 0.00 | 0.00 | 0.00 | 56 | 1014.2 |
| 20260507060040 | 42 | 209 | 0.9 | 2.6 | 0.00 | 0.00 | 0.00 | 58 | 1014.3 |
| 20260507054514 | 36 | 266 | 0.0 | 2.6 | 0.00 | 0.00 | 0.00 | 76 | 1014.4 |
| 20260507053020 | 35 | 332 | 0.0 | 0.9 | 0.00 | 0.00 | 0.00 | 77 | 1014.3 |
| 20260507051522 | 35 | 282 | 0.0 | 0.0 | 0.00 | 0.00 | 0.00 | 76 | 1014.4 |
| 20260507050009 | 35 | 282 | 0.0 | 0.0 | 0.00 | 0.00 | 0.00 | 80 | 1014.6 |
| 20260507044529 | 35 | 282 | 0.0 | 0.0 | 0.00 | 0.00 | 0.00 | 80 | 1014.7 |
| 20260507043016 | 35 | 282 | 0.0 | 0.0 | 0.00 | 0.00 | 0.00 | 78 | 1014.8 |
| 20260507041518 | 35 | 282 | 0.0 | 0.0 | 0.00 | 0.00 | 0.00 | 76 | 1014.9 |
| 20260507040031 | 36 | 282 | 0.0 | 0.0 | 0.00 | 0.00 | 0.00 | 75 | 1015.1 |
| 20260507034525 | 37 | 282 | 0.0 | 0.0 | 0.00 | 0.00 | 0.00 | 74 | 1015.3 |
| 20260507033014 | 37 | 282 | 0.0 | 0.0 | 0.00 | 0.00 | 0.00 | 74 | 1015.3 |
| 20260507031517 | 38 | 282 | 0.0 | 0.0 | 0.00 | 0.00 | 0.00 | 70 | 1015.4 |
| 20260507030023 | 39 | 282 | 0.0 | 0.0 | 0.00 | 0.00 | 0.00 | 71 | 1015.4 |
| 20260507024524 | 39 | 282 | 0.0 | 0.0 | 0.00 | 0.00 | 0.00 | 67 | 1015.2 |
| 20260507023025 | 41 | 282 | 0.0 | 0.0 | 0.00 | 0.00 | 0.00 | 68 | 1015.1 |
| 20260507021519 | 42 | 282 | 0.0 | 0.0 | 0.00 | 0.00 | 0.00 | 63 | 1014.9 |
| 20260507020019 | 44 | 282 | 0.0 | 0.0 | 0.00 | 0.00 | 0.00 | 58 | 1014.8 |
| 20260507014521 | 46 | 282 | 0.0 | 0.0 | 0.00 | 0.00 | 0.00 | 54 | 1014.8 |
| 20260507013030 | 49 | 282 | 0.0 | 0.0 | 0.00 | 0.00 | 0.00 | 49 | 1015.0 |
| 20260507011526 | 52 | 282 | 0.0 | 0.0 | 0.00 | 0.00 | 0.00 | 42 | 1014.9 |
| 20260507010020 | 54 | 282 | 0.0 | 0.9 | 0.00 | 0.00 | 0.00 | 34 | 1014.9 |
| 20260507004524 | 55 | 297 | 0.0 | 0.9 | 0.00 | 0.00 | 0.00 | 30 | 1014.9 |
| 20260507003028 | 56 | 308 | 0.9 | 2.6 | 0.00 | 0.00 | 0.00 | 29 | 1015.0 |
| 20260507001534 | 57 | 295 | 0.9 | 3.5 | 0.00 | 0.00 | 0.00 | 30 | 1015.1 |
| 20260507000028 | 57 | 300 | 0.9 | 2.6 | 0.00 | 0.00 | 0.00 | 29 | 1015.2 |
| 20260506234514 | 57 | 302 | 0.0 | 4.3 | 0.00 | 0.00 | 0.00 | 30 | 1015.3 |
| 20260506233022 | 58 | 299 | 0.9 | 5.2 | 0.00 | 0.00 | 0.00 | 29 | 1015.4 |
| 20260506231527 | 58 | 268 | 2.6 | 7.0 | 0.00 | 0.00 | 0.00 | 28 | 1015.5 |
| 20260506230025 | 58 | 228 | 0.9 | 6.1 | 0.00 | 0.00 | 0.00 | 27 | 1015.6 |
| 20260506224512 | 58 | 229 | 0.9 | 3.5 | 0.00 | 0.00 | 0.00 | 31 | 1015.7 |
| 20260506223018 | 58 | 296 | 1.7 | 6.1 | 0.00 | 0.00 | 0.00 | 29 | 1015.7 |
| 20260506221519 | 58 | 241 | 2.6 | 7.8 | 0.00 | 0.00 | 0.00 | 28 | 1015.9 |
| 20260506220026 | 58 | 6 | 1.7 | 5.2 | 0.00 | 0.00 | 0.00 | 30 | 1016.0 |
| 20260506214525 | 57 | 295 | 0.0 | 7.8 | 0.00 | 0.00 | 0.00 | 29 | 1016.1 |
| 20260506213014 | 58 | 318 | 0.9 | 3.5 | 0.00 | 0.00 | 0.00 | 29 | 1016.3 |
| 20260506211519 | 59 | 51 | 0.9 | 7.0 | 0.00 | 0.00 | 0.00 | 26 | 1016.3 |
| 20260506210024 | 58 | 310 | 0.9 | 7.8 | 0.00 | 0.00 | 0.00 | 31 | 1016.6 |
| 20260506204524 | 58 | 336 | 2.6 | 5.2 | 0.00 | 0.00 | 0.00 | 27 | 1016.7 |
| 20260506203031 | 58 | 39 | 0.9 | 4.3 | 0.00 | 0.00 | 0.00 | 30 | 1016.8 |
| 20260506201515 | 58 | 82 | 1.7 | 5.2 | 0.00 | 0.00 | 0.00 | 30 | 1017.0 |
| 20260506200020 | 56 | 286 | 2.6 | 6.1 | 0.00 | 0.00 | 0.00 | 31 | 1017.1 |
| 20260506194522 | 55 | 321 | 2.6 | 7.8 | 0.00 | 0.00 | 0.00 | 30 | 1017.2 |
| 20260506193025 | 56 | 294 | 4.3 | 7.8 | 0.00 | 0.00 | 0.00 | 30 | 1017.4 |
| 20260506191528 | 58 | 298 | 1.7 | 7.8 | 0.00 | 0.00 | 0.00 | 31 | 1017.4 |
| 20260506190017 | 57 | 292 | 1.7 | 8.7 | 0.00 | 0.00 | 0.00 | 31 | 1017.5 |
| 20260506184526 | 57 | 315 | 1.7 | 9.6 | 0.00 | 0.00 | 0.00 | 34 | 1017.6 |
| 20260506183024 | 56 | 100 | 1.7 | 7.0 | 0.00 | 0.00 | 0.00 | 34 | 1017.8 |
| 20260506181530 | 56 | 25 | 2.6 | 7.8 | 0.00 | 0.00 | 0.00 | 33 | 1017.9 |
| 20260506180031 | 56 | 301 | 1.7 | 9.6 | 0.00 | 0.00 | 0.00 | 37 | 1018.2 |
| 20260506174518 | 56 | 312 | 3.5 | 7.0 | 0.00 | 0.00 | 0.00 | 35 | 1018.5 |
| 20260506173023 | 55 | 331 | 1.7 | 8.7 | 0.00 | 0.00 | 0.00 | 34 | 1018.5 |
| 20260506171525 | 55 | 324 | 3.5 | 9.6 | 0.00 | 0.00 | 0.00 | 35 | 1018.7 |
| 20260506170035 | 53 | 1 | 2.6 | 7.8 | 0.00 | 0.00 | 0.00 | 38 | 1018.8 |
| 20260506164532 | 53 | 214 | 0.9 | 7.0 | 0.00 | 0.00 | 0.00 | 41 | 1018.9 |
| 20260506163020 | 53 | 293 | 1.7 | 3.5 | 0.00 | 0.00 | 0.00 | 36 | 1018.7 |
| 20260506161524 | 52 | 299 | 2.6 | 7.8 | 0.00 | 0.00 | 0.00 | 39 | 1018.7 |
| 20260506160026 | 53 | 307 | 2.6 | 7.8 | 0.00 | 0.00 | 0.00 | 37 | 1018.7 |
| 20260506154529 | 52 | 343 | 3.5 | 7.0 | 0.00 | 0.00 | 0.00 | 37 | 1018.8 |
| 20260506153026 | 51 | 335 | 1.7 | 6.1 | 0.00 | 0.00 | 0.00 | 40 | 1018.7 |
| 20260506151534 | 51 | 53 | 2.6 | 4.3 | 0.00 | 0.00 | 0.00 | 39 | 1018.7 |
| 20260506150022 | 51 | 293 | 1.7 | 5.2 | 0.00 | 0.00 | 0.00 | 42 | 1018.8 |
| 20260506144525 | 50 | 319 | 4.3 | 7.0 | 0.00 | 0.00 | 0.00 | 40 | 1018.8 |
| 20260506143028 | 49 | 291 | 0.9 | 3.5 | 0.00 | 0.00 | 0.00 | 46 | 1018.7 |
| 20260506141528 | 48 | 295 | 2.6 | 6.1 | 0.00 | 0.00 | 0.00 | 43 | 1018.7 |
| 20260506140004 | 48 | 236 | 0.9 | 5.2 | 0.00 | 0.00 | 0.00 | 48 | 1018.6 |
| 20260506134504 | 46 | 304 | 1.7 | 4.3 | 0.00 | 0.00 | 0.00 | 47 | 1018.4 |
| 20260506133013 | 46 | 309 | 0.9 | 2.6 | 0.00 | 0.00 | 0.00 | 48 | 1018.4 |
| 20260506131517 | 45 | 289 | 0.9 | 3.5 | 0.00 | 0.00 | 0.00 | 53 | 1018.3 |
| 20260506130018 | 43 | 264 | 0.9 | 2.6 | 0.00 | 0.00 | 0.00 | 54 | 1018.4 |
| 20260506124503 | 43 | 274 | 0.0 | 0.9 | 0.00 | 0.00 | 0.00 | 58 | 1018.3 |
| 20260506123006 | 41 | 282 | 0.0 | 0.9 | 0.00 | 0.00 | 0.00 | 60 | 1018.0 |
| 20260506121508 | 38 | 279 | 0.0 | 0.0 | 0.00 | 0.00 | 0.00 | 68 | 1017.7 |
| 20260506120023 | 34 | 279 | 0.0 | 0.0 | 0.00 | 0.00 | 0.00 | 78 | 1017.5 |
| 20260506114518 | 30 | 279 | 0.0 | 0.0 | 0.00 | 0.00 | 0.00 | 80 | 1017.2 |
| 20260506113006 | 30 | 278 | 0.0 | 0.0 | 0.00 | 0.00 | 0.00 | 77 | 1017.1 |
| 20260506111506 | 32 | 279 | 0.0 | 0.0 | 0.00 | 0.00 | 0.00 | 76 | 1017.1 |
| 20260506110012 | 32 | 279 | 0.0 | 0.9 | 0.00 | 0.00 | 0.00 | 75 | 1017.0 |
| 20260506104515 | 32 | 279 | 0.0 | 0.0 | 0.00 | 0.00 | 0.00 | 74 | 1017.0 |
| 20260506103020 | 33 | 278 | 0.0 | 0.0 | 0.00 | 0.00 | 0.00 | 69 | 1016.8 |
| 20260506101536 | 35 | 278 | 0.0 | 0.0 | 0.00 | 0.00 | 0.00 | 67 | 1016.6 |
| 20260506100010 | 36 | 279 | 0.0 | 0.9 | 0.00 | 0.00 | 0.00 | 64 | 1016.5 |
| 20260506094513 | 36 | 279 | 0.0 | 0.0 | 0.00 | 0.00 | 0.00 | 64 | 1016.5 |